Forside
METAR-TAF:

METAR-TAF

Lufthavne :

Dusjanbe, Tadsjikistan

Breddekreds: 38-33N, længdekreds: 068-47E, højde: 803 m

Aktuelle vejr

Denne rapport blev lavet for 17 minutter siden, kl. 03:00 UTC
Vind stille
Temperatur 3°C
Fugtighed 87%
Tryk 1027 hPa
Sigt: 1000 m
dis, røg

METAR: UTDD 160300Z 00000MPS 2400 1000E BR FU NSC 03/01 Q1027 R09/CLRD// NOSIG RMK QFE701/0935

Tid: 08:17 (03:17 UTC)

Vejrudsigter

Denne rapport blev lavet for 3 timer og 17 minutter siden, kl. 00:00 UTC
Foreløbig gælder fra 16 på 01 UTC til 16 på 13 UTC
Vind 4 kt fra varierende retninger
Sigt: 2000 m
Spredte skyer i en højde af 6000 ft, Cumulonimbus.
Brudte skyer i en højde af 9000 ft
dis, røg
Midlertidig
fra 16 på 01 UTC til 16 på 05 UTC
Sigt: 0600 m
tåge, røg
ændring
fra 16 på 04 UTC til 16 på 06 UTC
Sigt: 6000 m

TAF: UTDD 160000Z 1601/1613 VRB02MPS 2000 BR FU SCT060CB BKN090 TEMPO 1601/1605 0600 FG FU BECMG 1604/1606 6000

Vejrobservationer og prognoser fra mere end 4000 lufthavne (METAR og TAF).

De gule og røde prikker repræsenterer de meteorologiske stationer.

Flyt musen over at se navnet på stationen.

Så klik over at se vejr observationer og prognoser.

At skifte det kort: Klik på de grønne knapper med et sort kors for at zoome ind; på den grønne knap med en bindestreg for at zoome ud; eller på de grønne pile for tilstødende kort.


METAR-TAF: